P/v San Francisco — WDA3425 — position and weather

sailwx.info

Track history (hours):
 
Tides and Currents Weather Stations Pressure Air Temp Water Temp Dewpoint Dewpoint Depression Visibility Wind Speed Wind Dir Waves Ship Positions

P/v San Francisco

Owner: San Francisco Bar Pilots Benevolent and Protective, SAN FRANCISCO, CA. More information available from US FCC via Universal Licensing System and Coast Guard Vessel Documentation Center.

Last reported at 2018-Apr-18 19:27 UTC. Time now 2018-Apr-20 14:23 UTC.
Position N 37°48' W 122°24'.

Length 33 m.

Type: Pilot. MMSI: 366798310.

Date/timePositionNaut miles runAvg speedWind from/ knotsBaromVisibWave heightAir tempDewpointWater temp
2018-Apr-18 19:27N 37°48' W 122°24'3 6.5
2018-Apr-18 19:00N 37°49' W 122°20'0 0.3
2018-Apr-18 18:30N 37°49' W 122°20'1 1.2
2018-Apr-18 18:00N 37°48' W 122°21'2 3.8
2018-Apr-18 17:31N 37°48' W 122°23'1 1.5
2018-Apr-18 17:00N 37°48' W 122°24'4 7.0
2018-Apr-18 16:30N 37°48' W 122°19'0 0.3
2018-Apr-18 16:00N 37°48' W 122°19'3 6.1
2018-Apr-18 15:30N 37°48' W 122°23'1 0.0
2018-Apr-16 20:48N 37°48' W 122°24'0 0.0
2018-Apr-16 20:30N 37°48' W 122°24'0 0.0
2018-Apr-16 20:00N 37°48' W 122°24'0 0.0
2018-Apr-16 19:30N 37°48' W 122°24'0 0.0
2018-Apr-16 19:00N 37°48' W 122°24'0 0.0
2018-Apr-16 18:30N 37°48' W 122°24'0 0.0
2018-Apr-16 18:00N 37°48' W 122°24'0 0.0
2018-Apr-16 17:30N 37°48' W 122°24'0 0.0
2018-Apr-16 13:09N 37°48' W 122°24'0 1.3
2018-Apr-16 13:00N 37°48' W 122°24'1 2.5
2018-Apr-16 12:30N 37°49' W 122°25'1 1.9
2018-Apr-16 12:00N 37°49' W 122°26'510.9
2018-Apr-16 11:30N 37°47' W 122°33'510.2
2018-Apr-16 11:00N 37°46' W 122°39'714.1
2018-Apr-16 10:30N 37°48' W 122°31'510.7
2018-Apr-16 10:01N 37°48' W 122°24'  
2018-Apr-14 05:58N 37°48' W 122°24'4 9.4
2018-Apr-14 05:30N 37°49' W 122°29'815.1
2018-Apr-14 05:01N 37°46' W 122°38'5 9.2
2018-Apr-14 04:30N 37°47' W 122°33'612.3
2018-Apr-14 04:00N 37°49' W 122°25'  
2018-Apr-09 12:10N 37°48' W 122°24'0 2.0
2018-Apr-09 12:00N 37°48' W 122°24'611.7
2018-Apr-09 11:30N 37°48' W 122°31'612.2
2018-Apr-09 11:01N 37°46' W 122°38'3 5.7
2018-Apr-09 10:31N 37°47' W 122°35'713.7
2018-Apr-09 10:00N 37°49' W 122°27'2 5.0
2018-Apr-09 09:31N 37°48' W 122°24'0 0.0
2018-Apr-09 09:00N 37°48' W 122°24'0 0.0
2018-Apr-09 08:30N 37°48' W 122°24'0 0.0
2018-Apr-09 08:01N 37°48' W 122°24'0 0.0
2018-Apr-09 07:30N 37°48' W 122°24'0 0.0
2018-Apr-09 07:00N 37°48' W 122°24'0 0.0
2018-Apr-09 06:29N 37°48' W 122°24'3 7.0
2018-Apr-09 06:01N 37°49' W 122°28'612.5
2018-Apr-09 05:31N 37°47' W 122°35'1 2.7
2018-Apr-09 05:00N 37°46' W 122°37'713.2
2018-Apr-09 04:30N 37°49' W 122°29'  
Track history (hours):
 
Tides and Currents Weather Stations Pressure Air Temp Water Temp Dewpoint Dewpoint Depression Visibility Wind Speed Wind Dir Waves Ship Positions

P/v San Francisco

Owner: San Francisco Bar Pilots Benevolent and Protective, SAN FRANCISCO, CA. More information available from US FCC via Universal Licensing System and Coast Guard Vessel Documentation Center.

Last reported at 2018-Apr-18 19:27 UTC. Time now 2018-Apr-20 14:23 UTC.
Position N 37°48' W 122°24'.

Length 33 m.

Type: Pilot. MMSI: 366798310.

Date/timePositionNaut miles runAvg speedWind from/ knotsBaromVisibWave heightAir tempDewpointWater temp
2018-Apr-18 19:27N 37°48' W 122°24'3 6.5
2018-Apr-18 19:00N 37°49' W 122°20'0 0.3
2018-Apr-18 18:30N 37°49' W 122°20'1 1.2
2018-Apr-18 18:00N 37°48' W 122°21'2 3.8
2018-Apr-18 17:31N 37°48' W 122°23'1 1.5
2018-Apr-18 17:00N 37°48' W 122°24'4 7.0
2018-Apr-18 16:30N 37°48' W 122°19'0 0.3
2018-Apr-18 16:00N 37°48' W 122°19'3 6.1
2018-Apr-18 15:30N 37°48' W 122°23'1 0.0
2018-Apr-16 20:48N 37°48' W 122°24'0 0.0
2018-Apr-16 20:30N 37°48' W 122°24'0 0.0
2018-Apr-16 20:00N 37°48' W 122°24'0 0.0
2018-Apr-16 19:30N 37°48' W 122°24'0 0.0
2018-Apr-16 19:00N 37°48' W 122°24'0 0.0
2018-Apr-16 18:30N 37°48' W 122°24'0 0.0
2018-Apr-16 18:00N 37°48' W 122°24'0 0.0
2018-Apr-16 17:30N 37°48' W 122°24'0 0.0
2018-Apr-16 13:09N 37°48' W 122°24'0 1.3
2018-Apr-16 13:00N 37°48' W 122°24'1 2.5
2018-Apr-16 12:30N 37°49' W 122°25'1 1.9
2018-Apr-16 12:00N 37°49' W 122°26'510.9
2018-Apr-16 11:30N 37°47' W 122°33'510.2
2018-Apr-16 11:00N 37°46' W 122°39'714.1
2018-Apr-16 10:30N 37°48' W 122°31'510.7
2018-Apr-16 10:01N 37°48' W 122°24'  
2018-Apr-14 05:58N 37°48' W 122°24'4 9.4
2018-Apr-14 05:30N 37°49' W 122°29'815.1
2018-Apr-14 05:01N 37°46' W 122°38'5 9.2
2018-Apr-14 04:30N 37°47' W 122°33'612.3
2018-Apr-14 04:00N 37°49' W 122°25'  
2018-Apr-09 12:10N 37°48' W 122°24'0 2.0
2018-Apr-09 12:00N 37°48' W 122°24'611.7
2018-Apr-09 11:30N 37°48' W 122°31'612.2
2018-Apr-09 11:01N 37°46' W 122°38'3 5.7
2018-Apr-09 10:31N 37°47' W 122°35'713.7
2018-Apr-09 10:00N 37°49' W 122°27'2 5.0
2018-Apr-09 09:31N 37°48' W 122°24'0 0.0
2018-Apr-09 09:00N 37°48' W 122°24'0 0.0
2018-Apr-09 08:30N 37°48' W 122°24'0 0.0
2018-Apr-09 08:01N 37°48' W 122°24'0 0.0
2018-Apr-09 07:30N 37°48' W 122°24'0 0.0
2018-Apr-09 07:00N 37°48' W 122°24'0 0.0
2018-Apr-09 06:29N 37°48' W 122°24'3 7.0
2018-Apr-09 06:01N 37°49' W 122°28'612.5
2018-Apr-09 05:31N 37°47' W 122°35'1 2.7
2018-Apr-09 05:00N 37°46' W 122°37'713.2
2018-Apr-09 04:30N 37°49' W 122°29'  

Dump ship's entire track history